createdAt,value
2023-05-29T00:01:25.640Z,64.55
2023-05-29T00:04:30.768Z,63.89
2023-05-29T00:07:34.776Z,64.60
2023-05-29T00:10:38.503Z,65.71
2023-05-29T00:13:42.848Z,66.28
2023-05-29T00:16:48.004Z,66.36
2023-05-29T00:19:53.791Z,65.32
2023-05-29T00:22:58.584Z,64.74
2023-05-29T00:26:02.620Z,64.36
2023-05-29T00:29:06.620Z,64.27
2023-05-29T00:32:11.788Z,64.31
2023-05-29T00:35:17.279Z,64.06
2023-05-29T00:38:21.428Z,64.29
2023-05-29T00:41:27.349Z,64.26
2023-05-29T00:44:31.496Z,63.82
2023-05-29T00:47:35.791Z,64.00
2023-05-29T00:50:41.875Z,63.58
2023-05-29T00:53:47.342Z,63.64
2023-05-29T00:56:51.705Z,63.06
2023-05-29T00:59:55.807Z,64.07
2023-05-29T01:03:00.860Z,64.20
2023-05-29T01:06:06.240Z,64.56
2023-05-29T01:09:10.742Z,63.96
2023-05-29T01:12:25.625Z,63.69
2023-05-29T01:15:39.949Z,63.51
2023-05-29T01:18:54.064Z,63.09
2023-05-29T01:22:15.370Z,62.85
2023-05-29T01:25:24.042Z,63.56
2023-05-29T01:28:34.681Z,63.53
2023-05-29T01:31:59.034Z,63.21
2023-05-29T01:35:03.132Z,62.76
2023-05-29T01:38:06.752Z,63.00
2023-05-29T01:41:11.884Z,63.14
2023-05-29T01:44:19.050Z,63.21
2023-05-29T01:47:25.274Z,63.38
2023-05-29T01:50:30.997Z,63.35
2023-05-29T01:53:34.988Z,63.82
2023-05-29T01:56:39.233Z,63.94
2023-05-29T01:59:45.988Z,64.02
2023-05-29T02:02:49.640Z,63.98
2023-05-29T02:05:53.625Z,64.00
2023-05-29T02:08:57.315Z,64.45
2023-05-29T02:12:02.040Z,65.51
2023-05-29T02:15:08.971Z,69.13
2023-05-29T02:18:15.584Z,68.30
2023-05-29T02:21:19.268Z,68.06
2023-05-29T02:24:42.236Z,69.05
2023-05-29T02:27:46.035Z,69.11
2023-05-29T02:30:54.025Z,68.31
2023-05-29T02:33:58.195Z,67.66
2023-05-29T02:37:02.455Z,66.66
2023-05-29T02:40:07.749Z,66.18
2023-05-29T02:43:14.863Z,65.97
2023-05-29T02:46:21.271Z,65.74
2023-05-29T02:49:26.894Z,65.64
2023-05-29T02:52:31.488Z,65.97
2023-05-29T02:55:37.065Z,66.12
2023-05-29T02:58:40.977Z,66.08
2023-05-29T03:01:48.803Z,66.68
2023-05-29T03:04:53.364Z,66.41
2023-05-29T03:07:57.454Z,65.78
2023-05-29T03:11:01.655Z,65.81
2023-05-29T03:14:05.931Z,65.91
2023-05-29T03:17:29.150Z,66.19
2023-05-29T03:20:34.357Z,67.18
2023-05-29T03:23:38.510Z,67.20
2023-05-29T03:26:42.685Z,66.54
2023-05-29T03:29:47.216Z,66.37
2023-05-29T03:32:52.577Z,66.37
2023-05-29T03:36:02.564Z,66.08
2023-05-29T03:39:07.591Z,65.44
2023-05-29T03:42:11.165Z,65.65
2023-05-29T03:45:15.032Z,65.44
2023-05-29T03:48:20.590Z,65.20
2023-05-29T03:51:25.843Z,65.31
2023-05-29T03:54:32.198Z,65.20
2023-05-29T03:57:38.225Z,66.38
2023-05-29T04:00:41.925Z,65.80
2023-05-29T04:03:48.719Z,66.96
2023-05-29T04:06:52.589Z,68.43
2023-05-29T04:09:56.563Z,67.26
2023-05-29T04:13:00.194Z,67.53
2023-05-29T04:16:04.021Z,67.31
2023-05-29T04:19:09.611Z,66.96
2023-05-29T04:22:14.316Z,67.42
2023-05-29T04:25:19.158Z,66.43
2023-05-29T04:28:24.737Z,65.96
2023-05-29T04:31:29.462Z,65.09
2023-05-29T04:34:35.534Z,65.26
2023-05-29T04:37:39.539Z,64.99
2023-05-29T04:40:45.628Z,65.69
2023-05-29T04:43:53.517Z,66.56
2023-05-29T04:46:58.929Z,66.30
2023-05-29T04:50:04.202Z,66.10
2023-05-29T04:53:08.532Z,65.86
2023-05-29T04:56:12.602Z,65.94
2023-05-29T04:59:16.741Z,65.45
2023-05-29T05:02:20.729Z,64.61
2023-05-29T05:05:26.218Z,64.46
2023-05-29T05:08:34.729Z,64.98
2023-05-29T05:11:38.953Z,64.21
2023-05-29T05:14:44.545Z,63.77
2023-05-29T05:17:49.032Z,63.27
2023-05-29T05:20:54.481Z,63.64
2023-05-29T05:24:17.521Z,62.89
2023-05-29T05:27:21.240Z,62.55
2023-05-29T05:30:25.209Z,62.41
2023-05-29T05:33:28.695Z,62.14
2023-05-29T05:36:34.071Z,61.38
2023-05-29T05:39:46.554Z,61.67
2023-05-29T05:42:50.773Z,60.83
2023-05-29T05:45:57.999Z,60.90
2023-05-29T05:49:03.066Z,60.19
2023-05-29T05:52:11.328Z,60.18
2023-05-29T05:55:15.419Z,60.30
2023-05-29T05:58:20.110Z,60.45
2023-05-29T06:01:24.711Z,60.15
2023-05-29T06:04:28.693Z,59.32
2023-05-29T06:07:34.205Z,59.12
2023-05-29T06:10:38.797Z,58.60
2023-05-29T06:13:43.457Z,58.39
2023-05-29T06:16:57.485Z,58.04
2023-05-29T06:20:03.286Z,58.59
2023-05-29T06:23:08.440Z,58.33
2023-05-29T06:26:15.038Z,58.43
2023-05-29T06:29:19.031Z,57.99
2023-05-29T06:32:23.868Z,57.39
2023-05-29T06:35:28.821Z,57.64
2023-05-29T06:38:38.862Z,57.26
2023-05-29T06:41:42.949Z,56.80
2023-05-29T06:44:49.711Z,56.19
2023-05-29T06:47:53.683Z,55.99
2023-05-29T06:50:57.914Z,55.66
2023-05-29T06:54:29.217Z,55.00
2023-05-29T06:57:34.243Z,55.61
2023-05-29T07:00:41.356Z,54.98
2023-05-29T07:04:25.498Z,54.28
2023-05-29T07:07:29.204Z,54.62
2023-05-29T07:10:37.625Z,54.40
2023-05-29T07:13:50.633Z,54.79
2023-05-29T07:16:54.725Z,53.89
2023-05-29T07:19:58.922Z,54.58
2023-05-29T07:23:03.403Z,54.48
2023-05-29T07:26:08.830Z,53.73
2023-05-29T07:29:13.355Z,52.74
2023-05-29T07:32:17.807Z,52.76
2023-05-29T07:35:22.130Z,51.94
2023-05-29T07:38:26.301Z,51.77
2023-05-29T07:41:31.710Z,51.68
2023-05-29T07:44:35.633Z,50.59
2023-05-29T07:47:40.101Z,48.39
2023-05-29T07:50:43.912Z,48.99
2023-05-29T07:53:48.270Z,46.33
2023-05-29T07:56:56.146Z,46.46
2023-05-29T08:00:01.302Z,46.26
2023-05-29T08:03:08.232Z,47.19
2023-05-29T08:06:33.748Z,46.15
2023-05-29T08:09:37.916Z,46.15
2023-05-29T08:12:43.114Z,45.84
2023-05-29T08:15:46.790Z,46.55
2023-05-29T08:18:50.697Z,47.01
2023-05-29T08:21:54.768Z,46.89
2023-05-29T08:24:58.891Z,47.40
2023-05-29T08:28:04.113Z,47.91
2023-05-29T08:31:08.243Z,46.51
2023-05-29T08:34:12.035Z,46.59
2023-05-29T08:37:16.089Z,46.59
2023-05-29T08:40:20.081Z,46.21
2023-05-29T08:43:26.818Z,46.94
2023-05-29T08:46:31.387Z,46.85
2023-05-29T08:49:45.254Z,45.73
2023-05-29T08:52:49.630Z,47.45
2023-05-29T08:55:56.818Z,47.31
2023-05-29T08:59:05.840Z,46.92
2023-05-29T09:02:28.405Z,48.01
2023-05-29T09:05:32.089Z,47.81
2023-05-29T09:08:36.624Z,48.18
2023-05-29T09:11:40.346Z,48.58
2023-05-29T09:14:47.535Z,47.61
2023-05-29T09:17:55.502Z,46.66
2023-05-29T09:21:02.384Z,46.25
2023-05-29T09:24:07.604Z,46.04
2023-05-29T09:27:14.099Z,46.35
2023-05-29T09:30:40.629Z,45.78
2023-05-29T09:34:05.120Z,46.22
2023-05-29T09:37:15.892Z,47.24
2023-05-29T09:40:23.304Z,47.74
2023-05-29T09:43:27.088Z,46.63
2023-05-29T09:46:36.572Z,47.29
2023-05-29T09:49:44.541Z,47.53
2023-05-29T09:52:48.830Z,47.26
2023-05-29T09:55:54.130Z,47.80
2023-05-29T09:59:00.297Z,48.57
2023-05-29T10:02:08.449Z,48.83
2023-05-29T10:05:12.955Z,49.83
2023-05-29T10:08:18.616Z,50.45
2023-05-29T10:11:26.077Z,48.36
2023-05-29T10:14:33.696Z,48.62
2023-05-29T10:17:41.866Z,45.84
2023-05-29T10:20:47.545Z,46.80
2023-05-29T10:23:53.277Z,46.69
2023-05-29T10:26:57.528Z,46.80
2023-05-29T10:30:08.131Z,46.94
2023-05-29T10:33:31.822Z,47.19
2023-05-29T10:36:41.054Z,48.19
2023-05-29T10:39:44.771Z,46.86
2023-05-29T10:42:51.226Z,45.33
2023-05-29T10:45:55.365Z,45.91
2023-05-29T10:49:01.600Z,47.75
2023-05-29T10:52:07.952Z,47.68
2023-05-29T10:55:13.196Z,46.75
2023-05-29T10:58:25.390Z,46.16
2023-05-29T11:01:47.680Z,45.26
2023-05-29T11:05:08.463Z,45.27
2023-05-29T11:08:35.870Z,46.08
2023-05-29T11:11:43.120Z,44.80
2023-05-29T11:14:53.250Z,44.68
2023-05-29T11:18:09.270Z,43.82
2023-05-29T11:21:26.633Z,45.02
2023-05-29T11:24:31.167Z,44.81
2023-05-29T11:27:36.784Z,44.28
2023-05-29T11:30:44.797Z,44.40
2023-05-29T11:33:51.766Z,44.04
2023-05-29T11:36:58.576Z,43.54
2023-05-29T11:40:06.659Z,45.06
2023-05-29T11:43:10.783Z,45.44
2023-05-29T11:46:19.729Z,44.96
2023-05-29T11:49:30.433Z,44.88
2023-05-29T11:52:36.734Z,45.78
2023-05-29T11:55:43.136Z,45.60
2023-05-29T11:58:49.255Z,45.10
2023-05-29T12:01:52.944Z,45.87
2023-05-29T12:05:03.993Z,46.70
2023-05-29T12:08:11.527Z,44.14
2023-05-29T12:11:15.632Z,44.97
2023-05-29T12:14:19.245Z,44.24
2023-05-29T12:17:23.503Z,44.16
2023-05-29T12:20:28.529Z,43.22
2023-05-29T12:23:33.990Z,43.59
2023-05-29T12:26:38.057Z,44.16
2023-05-29T12:29:42.942Z,45.38
2023-05-29T12:32:48.535Z,45.34
2023-05-29T12:35:52.776Z,42.52
2023-05-29T12:38:59.140Z,42.92
2023-05-29T12:42:03.568Z,41.74
2023-05-29T12:45:09.395Z,42.47
2023-05-29T12:48:13.430Z,42.95
2023-05-29T12:51:17.259Z,42.95
2023-05-29T12:54:22.588Z,42.91
2023-05-29T12:57:26.503Z,43.18
2023-05-29T13:00:31.554Z,44.07
2023-05-29T13:03:35.380Z,43.70
2023-05-29T13:06:40.734Z,43.59
2023-05-29T13:09:45.943Z,43.70
2023-05-29T13:12:55.342Z,44.18
2023-05-29T13:15:59.428Z,43.74
2023-05-29T13:19:03.633Z,41.59
2023-05-29T13:22:07.917Z,43.28
2023-05-29T13:25:15.533Z,45.44
2023-05-29T13:28:19.709Z,45.86
2023-05-29T13:31:24.198Z,46.06
2023-05-29T13:34:29.955Z,46.23
2023-05-29T13:37:34.377Z,46.01
2023-05-29T13:40:39.619Z,45.52
2023-05-29T13:43:45.199Z,47.17
2023-05-29T13:46:48.954Z,47.47
2023-05-29T13:49:52.893Z,46.80
2023-05-29T13:52:56.790Z,45.15
2023-05-29T13:56:02.451Z,46.52
2023-05-29T13:59:07.203Z,47.30
2023-05-29T14:02:11.193Z,48.15
2023-05-29T14:05:15.062Z,46.73
2023-05-29T14:08:19.725Z,50.04
2023-05-29T14:11:30.407Z,52.78
2023-05-29T14:14:40.357Z,52.99
2023-05-29T14:17:45.315Z,56.14
2023-05-29T14:20:50.173Z,62.44
2023-05-29T14:23:54.184Z,60.51
2023-05-29T14:27:02.145Z,61.98
2023-05-29T14:30:12.053Z,60.64
2023-05-29T14:33:16.074Z,56.86
2023-05-29T14:36:19.801Z,57.14
2023-05-29T14:39:25.164Z,56.38
2023-05-29T14:42:30.406Z,55.92
2023-05-29T14:45:34.833Z,57.65
2023-05-29T14:48:38.532Z,57.57
2023-05-29T14:51:43.908Z,58.93
2023-05-29T14:54:47.505Z,61.08
2023-05-29T14:57:53.127Z,62.14
2023-05-29T15:00:56.634Z,60.92
2023-05-29T15:04:01.445Z,62.61
2023-05-29T15:07:07.512Z,62.95
2023-05-29T15:10:13.199Z,63.83
2023-05-29T15:13:18.149Z,62.51
2023-05-29T15:16:22.333Z,61.78
2023-05-29T15:19:26.107Z,62.67
2023-05-29T15:22:32.127Z,60.54
2023-05-29T15:25:35.961Z,61.38
2023-05-29T15:28:42.880Z,61.07
2023-05-29T15:31:46.857Z,62.46
2023-05-29T15:34:53.574Z,62.56
2023-05-29T15:37:57.215Z,61.73
2023-05-29T15:41:04.206Z,62.14
2023-05-29T15:44:09.362Z,62.00
2023-05-29T15:47:13.740Z,61.51
2023-05-29T15:50:20.297Z,62.01
2023-05-29T15:53:24.191Z,62.97
2023-05-29T15:56:29.833Z,61.75
2023-05-29T15:59:36.063Z,61.05
2023-05-29T16:02:42.692Z,61.48
2023-05-29T16:05:47.197Z,61.26
2023-05-29T16:08:52.093Z,60.96
2023-05-29T16:11:56.825Z,60.55
2023-05-29T16:15:05.153Z,60.93
2023-05-29T16:18:10.129Z,61.55
2023-05-29T16:21:13.921Z,60.86
2023-05-29T16:24:18.320Z,61.25
2023-05-29T16:27:21.929Z,60.95
2023-05-29T16:30:27.665Z,61.11
2023-05-29T16:33:31.345Z,62.10
2023-05-29T16:39:39.089Z,62.07
2023-05-29T16:42:43.064Z,62.10
2023-05-29T16:45:48.513Z,61.83
2023-05-29T16:51:56.762Z,62.93
2023-05-29T16:55:02.954Z,62.63
2023-05-29T16:58:10.286Z,62.49
2023-05-29T17:01:17.627Z,62.98
2023-05-29T17:04:21.488Z,62.97
2023-05-29T17:07:26.616Z,62.91
2023-05-29T17:10:35.179Z,62.88
2023-05-29T17:13:39.272Z,63.40
2023-05-29T17:16:44.408Z,63.94
2023-05-29T17:19:48.398Z,63.27
2023-05-29T17:22:52.479Z,63.54
2023-05-29T17:26:01.298Z,63.70
2023-05-29T17:29:05.951Z,63.43
2023-05-29T17:32:11.658Z,63.14
2023-05-29T17:35:20.644Z,62.87
2023-05-29T17:38:25.599Z,62.91
2023-05-29T17:41:29.048Z,62.70
2023-05-29T17:44:32.946Z,63.13
2023-05-29T17:47:38.046Z,62.87
2023-05-29T17:50:42.962Z,63.29
2023-05-29T17:53:46.522Z,62.95
2023-05-29T17:56:50.398Z,63.05
2023-05-29T17:59:54.704Z,63.32
2023-05-29T18:03:00.440Z,63.56
2023-05-29T18:06:06.918Z,63.23
2023-05-29T18:09:11.803Z,64.00
2023-05-29T18:12:15.504Z,63.81
2023-05-29T18:15:21.187Z,63.84
2023-05-29T18:18:27.160Z,64.00
2023-05-29T18:21:31.227Z,63.35
2023-05-29T18:24:35.002Z,62.75
2023-05-29T18:27:39.312Z,62.60
2023-05-29T18:30:43.740Z,62.50
2023-05-29T18:33:52.620Z,62.98
2023-05-29T18:36:56.513Z,63.35
2023-05-29T18:40:00.597Z,63.79
2023-05-29T18:43:04.830Z,63.75
2023-05-29T18:46:09.422Z,63.51
2023-05-29T18:49:14.641Z,63.25
2023-05-29T18:52:19.116Z,63.67
2023-05-29T18:55:22.969Z,63.94
2023-05-29T18:58:30.103Z,63.51
2023-05-29T19:01:34.381Z,63.61
2023-05-29T19:04:40.714Z,63.80
2023-05-29T19:07:44.405Z,64.31
2023-05-29T19:10:48.415Z,64.50
2023-05-29T19:13:52.828Z,64.07
2023-05-29T19:16:56.899Z,63.77
2023-05-29T19:20:03.157Z,63.80
2023-05-29T19:23:07.803Z,64.26
2023-05-29T19:26:11.393Z,65.44
2023-05-29T19:29:18.649Z,65.22
2023-05-29T19:32:24.503Z,65.38
2023-05-29T19:35:30.116Z,65.09
2023-05-29T19:38:34.053Z,64.26
2023-05-29T19:41:39.421Z,63.55
2023-05-29T19:44:45.371Z,63.55
2023-05-29T19:47:49.574Z,63.08
2023-05-29T19:50:56.158Z,62.72
2023-05-29T19:54:00.327Z,62.96
2023-05-29T19:57:04.476Z,63.39
2023-05-29T20:00:10.394Z,62.89
2023-05-29T20:03:17.635Z,63.52
2023-05-29T20:06:24.903Z,63.66
2023-05-29T20:09:28.787Z,63.58
2023-05-29T20:12:32.781Z,63.05
2023-05-29T20:15:36.519Z,63.87
2023-05-29T20:18:40.493Z,63.53
2023-05-29T20:21:45.610Z,63.42
2023-05-29T20:24:49.601Z,63.14
2023-05-29T20:27:53.392Z,63.03
2023-05-29T20:30:58.015Z,63.35
2023-05-29T20:34:02.200Z,62.98
2023-05-29T20:37:08.119Z,62.63
2023-05-29T20:40:14.801Z,63.30
2023-05-29T20:43:23.178Z,62.92
2023-05-29T20:46:27.772Z,62.36
2023-05-29T20:49:31.912Z,61.92
2023-05-29T20:52:36.939Z,61.75
2023-05-29T20:55:40.977Z,61.90
2023-05-29T20:58:44.783Z,62.92
2023-05-29T21:01:50.746Z,63.40
2023-05-29T21:04:55.602Z,63.52
2023-05-29T21:08:01.050Z,63.29
2023-05-29T21:11:06.445Z,63.56
2023-05-29T21:14:13.232Z,65.23
2023-05-29T21:17:18.755Z,65.61
2023-05-29T21:20:25.203Z,66.05
2023-05-29T21:23:32.112Z,65.78
2023-05-29T21:26:36.860Z,65.74
2023-05-29T21:29:45.701Z,65.72
2023-05-29T21:32:54.617Z,66.58
2023-05-29T21:35:58.650Z,66.77
2023-05-29T21:39:09.129Z,66.92
2023-05-29T21:42:13.084Z,66.85
2023-05-29T21:45:18.613Z,65.48
2023-05-29T21:48:30.184Z,65.11
2023-05-29T21:51:39.140Z,64.87
2023-05-29T21:54:44.588Z,65.60
2023-05-29T21:57:49.357Z,66.24
2023-05-29T22:00:54.470Z,65.18
2023-05-29T22:04:06.916Z,66.17
2023-05-29T22:07:15.880Z,65.65
2023-05-29T22:10:24.052Z,65.38
2023-05-29T22:13:28.796Z,65.54
2023-05-29T22:16:33.918Z,65.46
2023-05-29T22:19:41.035Z,65.36
2023-05-29T22:22:46.185Z,64.86
2023-05-29T22:25:51.561Z,64.37
2023-05-29T22:28:56.800Z,64.06
2023-05-29T22:32:00.993Z,64.43
2023-05-29T22:35:22.922Z,66.32
2023-05-29T22:38:28.119Z,65.84
2023-05-29T22:41:33.517Z,66.74
2023-05-29T22:44:37.177Z,66.24
2023-05-29T22:47:41.061Z,66.34
2023-05-29T22:50:45.666Z,66.75
2023-05-29T22:53:50.551Z,67.18
2023-05-29T22:56:55.973Z,68.28
2023-05-29T22:59:59.927Z,67.27
2023-05-29T23:03:03.716Z,67.52
2023-05-29T23:06:07.978Z,68.67
2023-05-29T23:09:12.051Z,68.03
2023-05-29T23:12:18.051Z,67.59
2023-05-29T23:15:22.497Z,67.00
2023-05-29T23:18:26.799Z,67.15
2023-05-29T23:21:31.160Z,67.19
2023-05-29T23:24:37.410Z,66.91
2023-05-29T23:27:43.235Z,69.65
2023-05-29T23:30:47.437Z,68.09
2023-05-29T23:33:51.126Z,67.66
2023-05-29T23:36:54.989Z,67.46
2023-05-29T23:39:58.772Z,67.00
2023-05-29T23:43:04.297Z,66.76
2023-05-29T23:46:07.948Z,66.85
2023-05-29T23:49:12.353Z,65.98
2023-05-29T23:52:16.105Z,65.66
2023-05-29T23:55:20.077Z,66.17
2023-05-29T23:58:25.270Z,65.44
